Time;durP1;ratioP1;P1;durP2;ratioP2;P2;SDS_P1;SDS_P2;PMS_P1;PMS_P2;Temp;Humidity;BMP_temperature;BMP_pressure;BME280_temperature;BME280_humidity;BME280_pressure;Samples;Min_cycle;Max_cycle;Signal;HPM_P1;HPM_P2
2023/09/10 00:01:55;;;;;;;70.37;63.27;;;21.20;99.90;;;;;;5053758;28;20970;-73
2023/09/10 00:04:24;;;;;;;72.03;64.77;;;21.20;99.90;;;;;;5053364;28;20462;-75
2023/09/10 00:06:53;;;;;;;80.60;72.13;;;21.20;99.90;;;;;;5054071;28;20482;-75
2023/09/10 00:09:22;;;;;;;85.87;77.27;;;21.10;99.90;;;;;;5052527;28;20445;-74
2023/09/10 00:11:51;;;;;;;85.93;77.03;;;21.10;99.90;;;;;;5053114;28;20438;-74
2023/09/10 00:14:19;;;;;;;83.43;74.73;;;21.10;99.90;;;;;;5053323;28;20458;-74
2023/09/10 00:16:48;;;;;;;80.37;72.00;;;21.10;99.90;;;;;;5053217;28;20876;-75
2023/09/10 00:19:16;;;;;;;83.07;73.97;;;21.10;99.90;;;;;;5052056;28;20492;-75
2023/09/10 00:21:44;;;;;;;82.07;73.60;;;21.10;99.90;;;;;;5053115;28;20541;-74
2023/09/10 00:24:13;;;;;;;82.50;73.80;;;21.10;99.90;;;;;;5051812;28;20520;-75
2023/09/10 00:26:42;;;;;;;79.57;71.27;;;21.00;99.90;;;;;;5053003;28;20462;-75
2023/09/10 00:29:10;;;;;;;89.40;80.13;;;21.00;99.90;;;;;;5053033;28;20488;-74
2023/09/10 00:31:38;;;;;;;91.60;81.60;;;21.00;99.90;;;;;;5051790;28;20540;-74
2023/09/10 00:34:07;;;;;;;96.83;86.37;;;20.90;99.90;;;;;;5053172;28;20450;-74
2023/09/10 00:36:35;;;;;;;94.67;84.67;;;20.90;99.90;;;;;;5051695;28;20454;-74
2023/09/10 00:39:04;;;;;;;90.90;81.17;;;20.90;99.90;;;;;;5052935;28;20426;-74
2023/09/10 00:41:33;;;;;;;93.63;83.97;;;20.90;99.90;;;;;;5051693;28;20960;-74
2023/09/10 00:44:02;;;;;;;98.47;87.67;;;20.80;99.90;;;;;;5051518;28;20490;-74
2023/09/10 00:46:31;;;;;;;99.83;88.87;;;20.80;99.90;;;;;;5051459;28;20474;-74
2023/09/10 00:49:00;;;;;;;101.87;90.90;;;20.80;99.90;;;;;;5052802;28;20448;-74
2023/09/10 00:51:31;;;;;;;104.50;93.13;;;20.70;99.90;;;;;;5051568;28;20825;-74
2023/09/10 00:54:00;;;;;;;97.27;86.53;;;20.70;99.90;;;;;;5052734;28;20465;-74
2023/09/10 00:56:28;;;;;;;98.83;88.13;;;20.70;99.90;;;;;;5051508;28;20893;-74
2023/09/10 00:58:58;;;;;;;105.83;93.60;;;20.60;99.90;;;;;;5052678;28;20436;-74
2023/09/10 01:01:27;;;;;;;105.77;92.70;;;20.60;99.90;;;;;;5051516;28;20484;-73
2023/09/10 01:03:56;;;;;;;104.37;93.30;;;20.60;99.90;;;;;;5051442;28;20501;-74
2023/09/10 01:06:24;;;;;;;102.57;91.77;;;20.60;99.90;;;;;;5051298;28;20528;-74
2023/09/10 01:08:52;;;;;;;111.13;97.77;;;20.60;99.90;;;;;;5052641;28;20432;-74
2023/09/10 01:11:25;;;;;;;106.83;94.83;;;20.60;99.90;;;;;;5051351;28;20446;-74
2023/09/10 01:14:12;;;;;;;101.13;90.27;;;20.50;99.90;;;;;;5052607;28;20511;-74
2023/09/10 01:16:47;;;;;;;103.53;92.33;;;20.50;99.90;;;;;;5051305;28;20532;-74
2023/09/10 01:19:37;;;;;;;105.70;94.30;;;20.50;99.90;;;;;;5051320;28;20937;-74
2023/09/10 01:22:13;;;;;;;100.33;89.63;;;20.50;99.90;;;;;;5052572;28;20426;-74
2023/09/10 01:24:48;;;;;;;102.33;91.13;;;20.50;99.90;;;;;;5053656;28;20497;-74
2023/09/10 01:27:17;;;;;;;102.60;91.30;;;20.50;99.90;;;;;;5054902;28;20461;-74
2023/09/10 01:29:45;;;;;;;102.77;91.73;;;20.40;99.90;;;;;;5054787;28;20442;-74
2023/09/10 01:32:23;;;;;;;102.80;91.80;;;20.40;99.90;;;;;;5056040;28;20445;-74
2023/09/10 01:34:59;;;;;;;93.17;83.10;;;20.40;99.90;;;;;;5054724;28;20469;-74
2023/09/10 01:37:35;;;;;;;101.90;90.87;;;20.40;99.90;;;;;;5054785;28;20789;-74
2023/09/10 01:40:09;;;;;;;104.00;93.00;;;20.40;99.90;;;;;;5054728;28;20963;-74
2023/09/10 01:42:38;;;;;;;99.50;87.33;;;20.30;99.90;;;;;;5054678;28;20442;-74
2023/09/10 01:45:09;;;;;;;105.90;90.00;;;20.30;99.90;;;;;;5054528;28;20474;-74
2023/09/10 01:47:37;;;;;;;98.17;87.37;;;20.30;99.90;;;;;;5056086;28;20480;-74
2023/09/10 01:50:08;;;;;;;98.30;85.90;;;20.30;99.90;;;;;;5055750;28;20426;-74
2023/09/10 01:52:36;;;;;;;89.17;79.87;;;20.30;99.90;;;;;;5054583;28;20449;-74
2023/09/10 01:55:07;;;;;;;89.67;79.97;;;20.30;99.90;;;;;;5055600;28;20454;-74
2023/09/10 01:57:35;;;;;;;86.17;77.17;;;20.20;99.90;;;;;;5055961;28;20964;-74
2023/09/10 02:00:05;;;;;;;88.90;79.30;;;20.20;99.90;;;;;;5055629;28;20941;-74
2023/09/10 02:02:39;;;;;;;85.90;76.87;;;20.20;99.90;;;;;;5055606;28;20418;-74
2023/09/10 02:05:08;;;;;;;82.57;73.63;;;20.20;99.90;;;;;;5054033;28;20485;-74
2023/09/10 02:07:36;;;;;;;81.50;72.60;;;20.20;99.90;;;;;;5054162;28;20466;-74
2023/09/10 02:10:08;;;;;;;80.87;72.40;;;20.10;99.90;;;;;;5054080;28;20486;-74
2023/09/10 02:12:36;;;;;;;76.83;68.20;;;20.10;99.90;;;;;;5054127;28;20484;-74
2023/09/10 02:15:08;;;;;;;83.40;74.40;;;20.10;99.90;;;;;;5055216;28;20802;-74
2023/09/10 02:17:36;;;;;;;79.53;71.03;;;20.10;99.90;;;;;;5054306;28;20501;-74
2023/09/10 02:20:09;;;;;;;75.93;67.77;;;20.00;99.90;;;;;;5053953;28;20446;-74
2023/09/10 02:22:38;;;;;;;84.07;74.67;;;20.00;99.90;;;;;;5053948;28;20438;-74
2023/09/10 02:25:09;;;;;;;90.33;76.17;;;20.00;99.90;;;;;;5055107;28;20864;-74
2023/09/10 02:27:37;;;;;;;84.30;74.70;;;19.90;99.90;;;;;;5055682;28;20883;-74
2023/09/10 02:30:08;;;;;;;88.73;78.27;;;19.90;99.90;;;;;;5055080;28;20524;-74
2023/09/10 02:32:37;;;;;;;92.60;82.40;;;19.90;99.90;;;;;;5055168;28;20426;-74
2023/09/10 02:35:07;;;;;;;94.70;82.87;;;19.80;99.90;;;;;;5053224;28;20505;-74
2023/09/10 02:37:35;;;;;;;90.80;80.77;;;19.80;99.90;;;;;;5055505;28;20434;-74
2023/09/10 02:40:04;;;;;;;88.60;78.17;;;19.80;99.90;;;;;;5053636;28;20504;-74
2023/09/10 02:42:34;;;;;;;88.33;78.67;;;19.70;99.90;;;;;;5054804;28;20442;-74
2023/09/10 02:45:03;;;;;;;111.87;84.53;;;19.70;99.90;;;;;;5053515;28;20466;-74
2023/09/10 02:47:31;;;;;;;100.53;84.33;;;19.70;99.90;;;;;;5053463;28;20474;-74
2023/09/10 02:49:59;;;;;;;102.47;83.20;;;19.60;99.90;;;;;;5053857;28;21032;-74
2023/09/10 02:52:30;;;;;;;98.07;83.70;;;19.60;99.90;;;;;;5054223;28;20843;-74
2023/09/10 02:54:58;;;;;;;79.73;66.43;;;19.60;99.90;;;;;;5053302;28;20466;-74
2023/09/10 02:57:26;;;;;;;96.20;81.37;;;19.60;99.90;;;;;;5054568;28;20422;-74
2023/09/10 02:59:56;;;;;;;93.60;78.37;;;19.50;99.90;;;;;;5053243;28;20446;-74
2023/09/10 03:02:24;;;;;;;100.63;82.87;;;19.50;99.90;;;;;;5053280;28;20453;-74
2023/09/10 03:04:53;;;;;;;95.30;76.13;;;19.50;99.90;;;;;;5054448;28;20509;-74
2023/09/10 03:07:22;;;;;;;100.30;72.60;;;19.40;99.90;;;;;;5053085;28;20476;-74
2023/09/10 03:09:51;;;;;;;95.33;74.53;;;19.40;99.90;;;;;;5053104;28;20473;-74
2023/09/10 03:12:21;;;;;;;83.33;65.60;;;19.40;99.90;;;;;;5052979;28;20442;-74
2023/09/10 03:14:49;;;;;;;88.87;68.30;;;19.40;99.90;;;;;;5052804;28;20462;-74
2023/09/10 03:17:19;;;;;;;77.37;65.50;;;19.30;99.90;;;;;;5052898;28;20477;-74
2023/09/10 03:19:48;;;;;;;80.60;68.77;;;19.30;99.90;;;;;;5052875;28;20450;-74
2023/09/10 03:22:17;;;;;;;80.70;67.40;;;19.30;99.90;;;;;;5052875;28;20504;-74
2023/09/10 03:24:46;;;;;;;72.37;64.87;;;19.20;99.90;;;;;;5052611;28;20466;-74
2023/09/10 03:27:14;;;;;;;73.73;65.97;;;19.20;99.90;;;;;;5052599;28;20561;-74
2023/09/10 03:29:43;;;;;;;75.60;65.47;;;19.20;99.90;;;;;;5052746;28;20442;-74
2023/09/10 03:32:12;;;;;;;72.80;65.27;;;19.10;99.90;;;;;;5052586;28;20827;-74
2023/09/10 03:34:42;;;;;;;67.90;60.30;;;19.00;99.90;;;;;;5052467;28;20466;-74
2023/09/10 03:37:10;;;;;;;67.07;60.17;;;19.00;99.90;;;;;;5052723;28;20962;-74
2023/09/10 03:39:38;;;;;;;64.90;58.37;;;19.00;99.90;;;;;;5053750;28;20436;-74
2023/09/10 03:42:08;;;;;;;67.40;60.67;;;18.90;99.90;;;;;;5052361;28;20516;-74
2023/09/10 03:44:36;;;;;;;64.17;57.73;;;18.90;99.90;;;;;;5052275;28;20971;-74
2023/09/10 03:47:05;;;;;;;70.43;63.33;;;18.80;99.90;;;;;;5051532;28;20470;-74
2023/09/10 03:49:35;;;;;;;65.60;58.90;;;18.80;99.90;;;;;;5052391;28;20457;-74
2023/09/10 03:52:17;;;;;;;70.03;62.63;;;18.80;99.90;;;;;;5052294;28;20454;-74
2023/09/10 03:54:45;;;;;;;70.87;63.40;;;18.80;99.90;;;;;;5052298;28;20466;-74
2023/09/10 03:57:13;;;;;;;71.97;64.40;;;18.80;99.90;;;;;;5053835;28;20517;-74
2023/09/10 03:59:42;;;;;;;68.30;60.83;;;18.70;99.90;;;;;;5052118;28;20507;-74
2023/09/10 04:02:11;;;;;;;69.17;60.87;;;18.70;99.90;;;;;;5052095;28;20450;-74
2023/09/10 04:04:41;;;;;;;68.27;60.77;;;18.70;99.90;;;;;;5051853;28;20942;-74
2023/09/10 04:07:09;;;;;;;67.17;60.27;;;18.70;99.90;;;;;;5051968;28;20454;-74
2023/09/10 04:09:41;;;;;;;67.17;59.90;;;18.70;99.90;;;;;;5053341;28;20520;-74
2023/09/10 04:12:09;;;;;;;66.77;59.43;;;18.70;99.90;;;;;;5052163;28;20466;-74
2023/09/10 04:14:37;;;;;;;67.33;60.00;;;18.70;99.90;;;;;;5051876;28;20556;-74
2023/09/10 04:17:05;;;;;;;68.67;61.27;;;18.70;99.90;;;;;;5051938;28;20477;-74
2023/09/10 04:19:34;;;;;;;66.83;58.03;;;18.70;99.90;;;;;;5053121;28;20472;-74
2023/09/10 04:22:02;;;;;;;67.13;60.20;;;18.60;99.90;;;;;;5053303;28;20933;-74
2023/09/10 04:24:31;;;;;;;66.90;59.60;;;18.60;99.90;;;;;;5051787;28;20461;-74
2023/09/10 04:27:00;;;;;;;67.20;60.17;;;18.60;99.90;;;;;;5052951;28;20442;-74
2023/09/10 04:29:29;;;;;;;77.00;58.73;;;18.60;99.90;;;;;;5053568;28;20434;-74
2023/09/10 04:31:57;;;;;;;66.33;59.43;;;18.60;99.90;;;;;;5053417;28;20476;-73
2023/09/10 04:34:26;;;;;;;65.37;56.90;;;18.50;99.90;;;;;;5052424;28;20462;-74
2023/09/10 04:36:54;;;;;;;63.43;56.97;;;18.50;99.90;;;;;;5051760;28;21034;-74
2023/09/10 04:39:22;;;;;;;62.63;56.43;;;18.50;99.90;;;;;;5053074;28;20457;-74
2023/09/10 04:41:51;;;;;;;61.90;55.60;;;18.40;99.90;;;;;;5051673;28;20543;-73
2023/09/10 04:44:22;;;;;;;61.47;55.10;;;18.50;99.90;;;;;;5051498;28;20493;-74
2023/09/10 04:46:50;;;;;;;58.33;52.83;;;18.40;99.90;;;;;;5051805;28;20798;-74
2023/09/10 04:49:18;;;;;;;51.97;46.97;;;18.40;99.90;;;;;;5051630;28;20505;-74
2023/09/10 04:51:46;;;;;;;55.93;50.30;;;18.30;99.90;;;;;;5051782;28;20448;-74
2023/09/10 04:54:14;;;;;;;55.47;50.03;;;18.30;99.90;;;;;;5052991;28;20508;-74
2023/09/10 04:56:43;;;;;;;55.23;49.30;;;18.30;99.90;;;;;;5051511;28;20700;-74
2023/09/10 04:59:11;;;;;;;52.30;47.10;;;18.30;99.90;;;;;;5053821;28;20445;-74
2023/09/10 05:01:41;;;;;;;50.53;45.13;;;18.30;99.90;;;;;;5055560;28;20434;-74
2023/09/10 05:04:09;;;;;;;47.53;42.50;;;18.20;99.90;;;;;;5056591;28;20964;-74
2023/09/10 05:06:37;;;;;;;50.50;45.13;;;18.20;99.90;;;;;;5055291;28;20504;-73
2023/09/10 05:09:06;;;;;;;47.97;43.20;;;18.10;99.90;;;;;;5055195;28;20535;-73
2023/09/10 05:11:34;;;;;;;47.00;42.47;;;18.00;99.90;;;;;;5055273;28;20442;-74
2023/09/10 05:14:02;;;;;;;44.27;39.50;;;18.00;99.90;;;;;;5055232;28;20498;-74
2023/09/10 05:16:32;;;;;;;42.87;38.60;;;18.00;99.90;;;;;;5056526;28;20792;-74
2023/09/10 05:19:01;;;;;;;44.33;40.03;;;17.90;99.90;;;;;;5055132;28;20805;-74
2023/09/10 05:21:29;;;;;;;44.93;40.50;;;17.90;99.90;;;;;;5056357;28;20971;-73
2023/09/10 05:23:58;;;;;;;42.00;38.00;;;17.90;99.90;;;;;;5054913;28;20549;-72
2023/09/10 05:26:26;;;;;;;41.80;37.90;;;17.90;99.90;;;;;;5056602;28;20438;-73
2023/09/10 05:28:54;;;;;;;40.53;36.77;;;17.90;99.90;;;;;;5054938;28;20520;-73
2023/09/10 05:31:22;;;;;;;42.63;38.33;;;17.80;99.90;;;;;;5055127;28;20446;-72
2023/09/10 05:33:51;;;;;;;45.50;40.33;;;17.80;99.90;;;;;;5054855;28;20462;-72
2023/09/10 05:36:20;;;;;;;42.20;37.90;;;17.80;99.90;;;;;;5054859;28;20440;-73
2023/09/10 05:38:52;;;;;;;40.27;36.30;;;17.80;99.90;;;;;;5054874;28;20492;-73
2023/09/10 05:41:20;;;;;;;41.70;37.90;;;17.80;99.90;;;;;;5054915;28;20492;-72
2023/09/10 05:43:49;;;;;;;42.27;38.27;;;17.80;99.90;;;;;;5056139;28;20458;-72
2023/09/10 05:46:18;;;;;;;41.67;37.63;;;17.80;99.90;;;;;;5054615;28;20438;-73
2023/09/10 05:48:46;;;;;;;43.90;39.60;;;17.80;99.90;;;;;;5054503;28;20474;-72
2023/09/10 05:51:15;;;;;;;39.87;35.90;;;17.80;99.90;;;;;;5055698;28;20449;-72
2023/09/10 05:53:44;;;;;;;38.60;33.30;;;17.80;99.90;;;;;;5054397;28;20843;-72
2023/09/10 05:56:13;;;;;;;36.50;33.07;;;17.80;99.90;;;;;;5054730;28;20949;-72
2023/09/10 05:58:43;;;;;;;36.87;33.33;;;17.80;99.90;;;;;;5054428;28;20488;-73
2023/09/10 06:01:12;;;;;;;35.20;31.37;;;17.80;99.90;;;;;;5054376;28;20981;-72
2023/09/10 06:03:40;;;;;;;34.97;31.53;;;17.80;99.90;;;;;;5055781;28;20540;-73
2023/09/10 06:06:08;;;;;;;34.70;31.30;;;17.80;99.90;;;;;;5054295;28;20809;-72
2023/09/10 06:08:37;;;;;;;40.53;33.30;;;17.80;99.90;;;;;;5054189;28;21059;-72
2023/09/10 06:11:07;;;;;;;37.73;32.53;;;17.80;99.90;;;;;;5054050;28;20446;-72
2023/09/10 06:13:36;;;;;;;37.77;33.20;;;17.80;99.90;;;;;;5054175;28;20470;-73
2023/09/10 06:16:05;;;;;;;38.90;35.00;;;17.80;99.90;;;;;;5054075;28;20456;-73
2023/09/10 06:18:33;;;;;;;34.47;30.93;;;17.80;99.90;;;;;;5054016;28;20438;-73
2023/09/10 06:21:02;;;;;;;35.23;31.67;;;17.80;99.90;;;;;;5053982;28;20448;-73
2023/09/10 06:23:30;;;;;;;31.87;28.50;;;17.90;99.90;;;;;;5054059;28;20466;-73
2023/09/10 06:25:58;;;;;;;31.77;28.80;;;17.90;99.90;;;;;;5053944;28;20446;-73
2023/09/10 06:28:28;;;;;;;33.97;28.57;;;17.90;99.90;;;;;;5054291;28;20466;-73
2023/09/10 06:30:57;;;;;;;27.13;24.53;;;17.90;99.90;;;;;;5055982;28;20943;-73
2023/09/10 06:33:26;;;;;;;29.70;26.70;;;17.90;99.90;;;;;;5054261;28;20465;-73
2023/09/10 06:35:55;;;;;;;29.33;26.37;;;17.90;99.90;;;;;;5054053;28;20442;-73
2023/09/10 06:38:23;;;;;;;27.97;24.97;;;17.90;99.90;;;;;;5055237;28;20495;-73
2023/09/10 06:40:51;;;;;;;36.10;27.57;;;17.90;99.90;;;;;;5055070;28;20441;-74
2023/09/10 06:43:20;;;;;;;30.10;27.00;;;18.00;99.90;;;;;;5053556;28;20533;-75
2023/09/10 06:46:01;;;;;;;31.53;28.43;;;18.00;99.90;;;;;;5054566;28;20495;-74
2023/09/10 06:48:29;;;;;;;30.20;27.20;;;18.10;99.90;;;;;;5054817;28;20980;-72
2023/09/10 06:51:00;;;;;;;28.37;25.60;;;18.10;99.90;;;;;;5054871;28;20438;-72
2023/09/10 06:53:29;;;;;;;29.03;26.20;;;18.10;99.90;;;;;;5055178;28;20991;-73
2023/09/10 06:55:58;;;;;;;31.07;27.80;;;18.10;99.90;;;;;;5054667;28;20442;-72
2023/09/10 06:58:26;;;;;;;31.27;28.17;;;18.10;99.90;;;;;;5054519;28;20442;-72
2023/09/10 07:00:54;;;;;;;31.13;27.90;;;18.10;99.90;;;;;;5053838;28;21024;-75
2023/09/10 07:03:24;;;;;;;31.67;28.37;;;18.10;99.90;;;;;;5055061;28;20480;-70
2023/09/10 07:05:52;;;;;;;34.70;31.20;;;18.10;99.90;;;;;;5053988;28;20814;-70
2023/09/10 07:08:20;;;;;;;32.00;28.43;;;18.10;99.90;;;;;;5054357;28;21034;-68
2023/09/10 07:10:48;;;;;;;30.77;27.57;;;18.20;99.90;;;;;;5054492;28;20438;-69
2023/09/10 07:13:17;;;;;;;32.20;28.80;;;18.20;99.90;;;;;;5054111;28;20438;-71
2023/09/10 07:15:45;;;;;;;34.13;30.63;;;18.20;99.90;;;;;;5054445;28;20813;-71
2023/09/10 07:18:13;;;;;;;33.63;30.03;;;18.20;99.90;;;;;;5054300;28;20480;-70
2023/09/10 07:20:42;;;;;;;32.70;29.17;;;18.20;99.90;;;;;;5054376;28;20933;-70
2023/09/10 07:23:11;;;;;;;35.13;31.20;;;18.20;99.90;;;;;;5052911;28;20495;-70
2023/09/10 07:25:39;;;;;;;36.60;32.17;;;18.20;99.90;;;;;;5054219;28;20405;-70
2023/09/10 07:28:07;;;;;;;34.30;30.83;;;18.20;99.90;;;;;;5054189;28;20430;-70
2023/09/10 07:30:36;;;;;;;34.77;30.90;;;18.20;99.90;;;;;;5054191;28;20553;-71
2023/09/10 07:33:04;;;;;;;35.70;32.00;;;18.20;99.90;;;;;;5053990;28;20434;-70
2023/09/10 07:35:32;;;;;;;33.37;30.00;;;18.30;99.90;;;;;;5054134;28;20434;-71
2023/09/10 07:38:02;;;;;;;36.60;32.53;;;18.30;99.90;;;;;;5053005;28;20956;-71
2023/09/10 07:40:30;;;;;;;37.70;33.80;;;18.30;99.90;;;;;;5054214;28;20434;-71
2023/09/10 07:42:59;;;;;;;35.37;31.60;;;18.30;99.90;;;;;;5054097;28;20438;-71
2023/09/10 07:45:27;;;;;;;38.30;34.40;;;18.30;99.90;;;;;;5052757;28;20453;-72
2023/09/10 07:47:56;;;;;;;35.63;31.90;;;18.40;99.90;;;;;;5052411;28;20443;-71
2023/09/10 07:50:27;;;;;;;35.53;31.83;;;18.40;99.90;;;;;;5053889;28;20544;-71
2023/09/10 07:52:56;;;;;;;37.50;33.40;;;18.40;99.90;;;;;;5054263;28;20422;-70
2023/09/10 07:55:26;;;;;;;38.23;33.90;;;18.50;99.90;;;;;;5053396;28;20552;-73
2023/09/10 07:57:54;;;;;;;36.83;32.13;;;18.50;99.90;;;;;;5053586;28;20508;-73
2023/09/10 08:00:22;;;;;;;40.30;35.17;;;18.50;99.90;;;;;;5052217;28;20504;-72
2023/09/10 08:02:50;;;;;;;39.90;34.10;;;18.60;99.90;;;;;;5051954;28;20461;-73
2023/09/10 08:05:18;;;;;;;37.60;33.10;;;18.60;99.90;;;;;;5052024;28;20535;-73
2023/09/10 08:07:47;;;;;;;37.60;33.50;;;18.60;99.90;;;;;;5052622;28;20858;-73
2023/09/10 08:10:15;;;;;;;40.13;34.50;;;18.70;99.90;;;;;;5053710;28;20466;-73
2023/09/10 08:12:44;;;;;;;40.93;34.03;;;18.70;99.90;;;;;;5052111;28;20496;-73
2023/09/10 08:15:13;;;;;;;37.77;33.67;;;18.80;99.90;;;;;;5053186;28;20458;-71
2023/09/10 08:17:41;;;;;;;35.77;31.87;;;18.80;99.90;;;;;;5052642;28;20442;-71
2023/09/10 08:20:10;;;;;;;35.60;31.70;;;18.80;99.90;;;;;;5053481;28;20892;-71
2023/09/10 08:22:38;;;;;;;36.40;31.70;;;18.90;99.90;;;;;;5053150;28;20552;-72
2023/09/10 08:25:08;;;;;;;38.20;33.77;;;18.90;99.90;;;;;;5051773;28;20484;-75
2023/09/10 08:27:36;;;;;;;36.37;32.67;;;19.00;99.90;;;;;;5053214;28;20442;-74
2023/09/10 08:30:09;;;;;;;36.93;32.93;;;19.00;99.90;;;;;;5053669;28;20461;-74
2023/09/10 08:32:38;;;;;;;34.50;30.53;;;19.10;99.90;;;;;;5052056;28;20873;-74
2023/09/10 08:35:07;;;;;;;33.40;29.90;;;19.10;99.90;;;;;;5052986;28;20497;-74
2023/09/10 08:37:36;;;;;;;39.37;33.57;;;19.10;99.90;;;;;;5053158;28;20434;-74
2023/09/10 08:40:04;;;;;;;33.07;29.57;;;19.10;99.90;;;;;;5053069;28;20488;-74
2023/09/10 08:42:42;;;;;;;35.73;30.93;;;19.20;99.90;;;;;;5053476;28;20861;-71
2023/09/10 08:45:12;;;;;;;34.50;30.90;;;19.20;99.90;;;;;;5051914;28;20477;-72
2023/09/10 08:47:43;;;;;;;35.67;31.17;;;19.30;99.90;;;;;;5053343;28;20457;-72
2023/09/10 08:50:13;;;;;;;33.53;28.37;;;19.30;99.90;;;;;;5053300;28;20453;-72
2023/09/10 08:52:44;;;;;;;36.17;31.40;;;19.40;99.90;;;;;;5053227;28;20430;-71
2023/09/10 08:55:13;;;;;;;37.77;33.13;;;19.40;99.90;;;;;;5052911;28;20476;-72
2023/09/10 08:57:43;;;;;;;38.00;32.37;;;19.50;99.90;;;;;;5053956;28;20434;-72
2023/09/10 09:00:14;;;;;;;39.17;31.87;;;19.50;99.90;;;;;;5053170;28;20425;-72
2023/09/10 09:02:44;;;;;;;37.07;32.27;;;19.60;99.90;;;;;;5052824;28;20419;-72
2023/09/10 09:05:13;;;;;;;36.10;30.60;;;19.70;99.90;;;;;;5051707;28;20830;-72
2023/09/10 09:07:45;;;;;;;35.80;31.97;;;19.70;99.90;;;;;;5053671;28;20438;-71
2023/09/10 09:10:18;;;;;;;32.73;29.27;;;19.80;99.90;;;;;;5052978;28;20454;-72
2023/09/10 09:12:48;;;;;;;34.97;31.17;;;19.90;99.90;;;;;;5052831;28;20913;-73
2023/09/10 09:15:18;;;;;;;33.93;30.47;;;19.90;99.90;;;;;;5052731;28;20465;-75
2023/09/10 09:17:47;;;;;;;36.50;30.63;;;20.00;99.90;;;;;;5052284;28;20438;-74
2023/09/10 09:20:19;;;;;;;34.10;30.37;;;20.10;99.90;;;;;;5053614;28;20442;-74
2023/09/10 09:22:51;;;;;;;33.73;30.23;;;20.20;99.90;;;;;;5052275;28;20437;-73
2023/09/10 09:25:19;;;;;;;35.90;29.30;;;20.20;99.90;;;;;;5052294;28;20481;-74
2023/09/10 09:27:49;;;;;;;36.10;29.40;;;20.30;99.90;;;;;;5053420;28;20437;-74
2023/09/10 09:30:18;;;;;;;33.70;28.37;;;20.40;99.90;;;;;;5053459;28;20475;-76
2023/09/10 09:32:49;;;;;;;34.67;29.80;;;20.50;99.90;;;;;;5053669;28;20441;-76
2023/09/10 09:35:18;;;;;;;29.37;26.20;;;20.50;99.90;;;;;;5053379;28;20549;-76
2023/09/10 09:37:46;;;;;;;33.17;28.97;;;20.60;99.90;;;;;;5052156;28;20537;-75
2023/09/10 09:40:21;;;;;;;32.07;27.70;;;20.60;99.90;;;;;;5053417;28;20890;-75
2023/09/10 09:42:50;;;;;;;33.10;26.70;;;20.70;99.90;;;;;;5053940;28;20418;-75
2023/09/10 09:45:23;;;;;;;32.77;27.63;;;20.80;99.90;;;;;;5052721;28;20892;-75
2023/09/10 09:47:51;;;;;;;31.80;27.60;;;20.90;99.90;;;;;;5057158;28;20437;-75
2023/09/10 09:50:20;;;;;;;32.00;27.63;;;20.90;99.90;;;;;;5055672;28;20462;-75
2023/09/10 09:52:52;;;;;;;30.60;26.47;;;21.00;99.90;;;;;;5057181;28;20521;-76
2023/09/10 09:55:21;;;;;;;32.27;27.60;;;21.00;99.90;;;;;;5056105;28;20846;-76
2023/09/10 09:57:49;;;;;;;28.90;25.90;;;21.10;99.90;;;;;;5057148;28;20525;-76
2023/09/10 10:00:18;;;;;;;30.57;26.63;;;21.20;99.90;;;;;;5056546;28;20483;-76
2023/09/10 10:02:49;;;;;;;30.87;25.43;;;21.20;99.90;;;;;;5057026;28;20426;-76
2023/09/10 10:05:22;;;;;;;29.20;23.93;;;21.30;99.90;;;;;;5057346;28;20477;-76
2023/09/10 10:07:52;;;;;;;28.27;23.70;;;21.40;99.90;;;;;;5055346;28;20434;-76
2023/09/10 10:10:23;;;;;;;29.03;25.90;;;21.40;99.90;;;;;;5056770;28;20450;-76
2023/09/10 10:12:53;;;;;;;27.47;24.23;;;21.50;99.90;;;;;;5055190;28;20438;-76
2023/09/10 10:15:23;;;;;;;30.83;24.63;;;21.60;99.90;;;;;;5057034;28;20461;-76
2023/09/10 10:17:54;;;;;;;27.63;24.57;;;21.60;99.90;;;;;;5056536;28;20430;-76
2023/09/10 10:20:23;;;;;;;27.73;23.87;;;21.70;99.90;;;;;;5055378;28;20915;-76
2023/09/10 10:22:52;;;;;;;26.30;22.60;;;21.80;99.90;;;;;;5056910;28;20785;-76
2023/09/10 10:25:21;;;;;;;26.07;23.27;;;21.90;99.90;;;;;;5055295;28;20524;-76
2023/09/10 10:27:51;;;;;;;26.00;23.20;;;21.90;99.90;;;;;;5056799;28;20512;-76
2023/09/10 10:30:19;;;;;;;27.20;23.60;;;22.00;99.90;;;;;;5056841;28;20790;-76
2023/09/10 10:32:50;;;;;;;26.57;23.77;;;22.10;99.90;;;;;;5057519;28;20438;-76
2023/09/10 10:35:20;;;;;;;27.90;22.47;;;22.10;99.90;;;;;;5056506;28;20461;-77
2023/09/10 10:37:53;;;;;;;27.57;24.07;;;22.20;99.90;;;;;;5054654;28;20973;-76
2023/09/10 10:40:28;;;;;;;24.13;21.53;;;22.20;99.90;;;;;;5053911;28;20438;-76
2023/09/10 10:43:06;;;;;;;27.97;22.87;;;22.30;99.90;;;;;;5055338;28;20504;-76
2023/09/10 10:45:35;;;;;;;24.77;22.13;;;22.30;99.90;;;;;;5055227;28;20429;-76
2023/09/10 10:48:08;;;;;;;27.73;24.40;;;22.40;99.90;;;;;;5051629;28;20442;-76
2023/09/10 10:50:40;;;;;;;26.10;22.90;;;22.50;99.90;;;;;;5052822;28;20533;-76
2023/09/10 10:53:14;;;;;;;25.10;22.47;;;22.50;99.90;;;;;;5057707;28;20422;-81
2023/09/10 10:55:44;;;;;;;26.30;22.80;;;22.60;99.90;;;;;;5054565;28;20453;-75
2023/09/10 10:58:12;;;;;;;28.63;24.17;;;22.70;99.90;;;;;;5052292;28;20532;-75
2023/09/10 11:00:41;;;;;;;27.67;24.67;;;22.70;99.90;;;;;;5052866;28;20434;-75
2023/09/10 11:03:11;;;;;;;25.87;23.10;;;22.80;99.90;;;;;;5052763;28;20438;-75
2023/09/10 11:06:05;;;;;;;26.67;23.87;;;22.80;99.90;;;;;;5054476;28;20450;-76
2023/09/10 11:08:35;;;;;;;28.00;23.43;;;22.90;99.90;;;;;;5044832;28;20541;-75
2023/09/10 11:11:05;;;;;;;26.17;23.37;;;23.00;99.90;;;;;;5054743;28;20454;-75
2023/09/10 11:13:34;;;;;;;28.93;24.60;;;23.00;99.90;;;;;;5054896;28;20453;-76
2023/09/10 11:16:18;;;;;;;27.17;24.27;;;23.10;99.90;;;;;;5053025;28;20475;-77
2023/09/10 11:18:46;;;;;;;26.23;23.37;;;23.10;99.90;;;;;;5052987;28;20433;-78
2023/09/10 11:21:17;;;;;;;26.10;23.40;;;23.10;99.90;;;;;;5053014;28;20544;-77
2023/09/10 11:24:24;;;;;;;27.50;24.20;;;23.20;99.90;;;;;;5054311;28;20460;-77
2023/09/10 11:27:20;;;;;;;24.83;22.13;;;23.30;99.90;;;;;;5054435;28;20513;-77
2023/09/10 11:30:10;;;;;;;27.50;24.03;;;23.40;99.90;;;;;;5056145;28;20501;-75
2023/09/10 11:32:38;;;;;;;25.67;23.13;;;23.40;99.90;;;;;;5054054;28;21108;-76
2023/09/10 11:35:26;;;;;;;29.50;21.73;;;23.50;99.90;;;;;;5056222;28;20505;-81
2023/09/10 11:37:57;;;;;;;24.03;21.43;;;23.50;99.90;;;;;;5058886;28;20450;-82
2023/09/10 11:40:28;;;;;;;24.63;22.03;;;23.60;99.90;;;;;;5058825;28;20432;-82
2023/09/10 11:42:57;;;;;;;26.53;23.23;;;23.70;99.90;;;;;;5057347;28;20446;-82
2023/09/10 11:45:30;;;;;;;24.53;21.50;;;23.70;99.90;;;;;;5057650;28;20493;-81
2023/09/10 11:47:58;;;;;;;25.13;22.40;;;23.80;99.90;;;;;;5060120;28;20437;-82
2023/09/10 11:50:27;;;;;;;23.63;20.90;;;23.80;99.90;;;;;;5058240;28;20529;-82
2023/09/10 11:52:57;;;;;;;22.27;20.00;;;23.90;99.90;;;;;;5057758;28;20984;-82
2023/09/10 11:55:25;;;;;;;22.10;19.60;;;24.00;99.90;;;;;;5059186;28;20540;-82
2023/09/10 11:57:54;;;;;;;19.00;16.90;;;24.00;99.90;;;;;;5059915;28;20480;-82
2023/09/10 12:00:24;;;;;;;20.07;17.93;;;24.10;99.90;;;;;;5057698;28;20449;-82
2023/09/10 12:02:55;;;;;;;18.97;17.10;;;24.10;99.90;;;;;;5058352;28;20445;-82
2023/09/10 12:05:26;;;;;;;17.77;15.87;;;24.20;99.90;;;;;;5058971;28;20568;-82
2023/09/10 12:08:01;;;;;;;20.40;18.30;;;24.20;99.90;;;;;;5056344;28;20536;-81
2023/09/10 12:10:30;;;;;;;19.30;16.43;;;24.30;99.90;;;;;;5057038;28;20454;-81
2023/09/10 12:13:03;;;;;;;17.67;15.77;;;24.30;99.90;;;;;;5057053;28;20470;-81
2023/09/10 12:15:35;;;;;;;19.03;17.03;;;24.30;99.90;;;;;;5057386;28;20472;-82
2023/09/10 12:18:05;;;;;;;18.70;16.80;;;24.40;99.90;;;;;;5056901;28;20977;-82
2023/09/10 12:20:36;;;;;;;18.87;17.07;;;24.40;99.90;;;;;;5056669;28;20446;-82
2023/09/10 12:23:07;;;;;;;15.97;14.37;;;24.50;99.90;;;;;;5059116;28;20430;-82
2023/09/10 12:25:35;;;;;;;17.00;15.20;;;24.50;99.90;;;;;;5056684;28;20450;-82
2023/09/10 12:28:04;;;;;;;15.60;14.10;;;24.60;99.90;;;;;;5057247;28;20454;-82
2023/09/10 12:30:32;;;;;;;17.60;13.50;;;24.60;99.90;;;;;;5058790;28;20464;-82
2023/09/10 12:33:01;;;;;;;16.03;14.17;;;24.70;99.90;;;;;;5058093;28;20512;-82
2023/09/10 12:35:30;;;;;;;13.77;12.37;;;24.70;99.90;;;;;;5056395;28;20453;-82
2023/09/10 12:38:01;;;;;;;14.30;12.90;;;24.80;99.90;;;;;;5056320;28;20457;-82
2023/09/10 12:40:31;;;;;;;18.07;16.30;;;24.90;99.90;;;;;;5056017;28;20460;-82